sensor_id;sensor_type;location;lat;lon;timestamp;temperature;humidity
51615;DHT22;37695;52.960;6.188;2023-01-24T00:01:39;3.30;99.90
51615;DHT22;37695;52.960;6.188;2023-01-24T00:04:05;3.30;99.90
51615;DHT22;37695;52.960;6.188;2023-01-24T00:06:30;3.30;99.90
51615;DHT22;37695;52.960;6.188;2023-01-24T00:08:56;3.30;99.90
51615;DHT22;37695;52.960;6.188;2023-01-24T00:11:21;3.30;99.90
51615;DHT22;37695;52.960;6.188;2023-01-24T00:13:47;3.30;99.90
51615;DHT22;37695;52.960;6.188;2023-01-24T00:16:18;3.30;99.90
51615;DHT22;37695;52.960;6.188;2023-01-24T00:18:44;3.30;99.90
51615;DHT22;37695;52.960;6.188;2023-01-24T00:21:13;3.30;99.90
51615;DHT22;37695;52.960;6.188;2023-01-24T00:23:40;3.30;99.90
51615;DHT22;37695;52.960;6.188;2023-01-24T00:26:06;3.30;99.90
51615;DHT22;37695;52.960;6.188;2023-01-24T00:28:33;3.20;99.90
51615;DHT22;37695;52.960;6.188;2023-01-24T00:30:58;3.30;99.90
51615;DHT22;37695;52.960;6.188;2023-01-24T00:33:24;3.20;99.90
51615;DHT22;37695;52.960;6.188;2023-01-24T00:35:51;3.20;99.90
51615;DHT22;37695;52.960;6.188;2023-01-24T00:38:17;3.30;99.90
51615;DHT22;37695;52.960;6.188;2023-01-24T00:40:43;3.20;99.90
51615;DHT22;37695;52.960;6.188;2023-01-24T00:43:09;3.30;99.90
51615;DHT22;37695;52.960;6.188;2023-01-24T00:45:36;3.30;99.90
51615;DHT22;37695;52.960;6.188;2023-01-24T00:48:04;3.20;99.90
51615;DHT22;37695;52.960;6.188;2023-01-24T00:50:29;3.20;99.90
51615;DHT22;37695;52.960;6.188;2023-01-24T00:52:55;3.20;99.90
51615;DHT22;37695;52.960;6.188;2023-01-24T00:55:20;3.20;99.90
51615;DHT22;37695;52.960;6.188;2023-01-24T00:57:46;3.20;99.90
51615;DHT22;37695;52.960;6.188;2023-01-24T01:00:12;3.20;99.90
51615;DHT22;37695;52.960;6.188;2023-01-24T01:02:38;3.20;99.90
51615;DHT22;37695;52.960;6.188;2023-01-24T01:05:04;3.20;99.90
51615;DHT22;37695;52.960;6.188;2023-01-24T01:07:30;3.30;99.90
51615;DHT22;37695;52.960;6.188;2023-01-24T01:09:55;3.30;99.90
51615;DHT22;37695;52.960;6.188;2023-01-24T01:12:21;3.30;99.90
51615;DHT22;37695;52.960;6.188;2023-01-24T01:14:46;3.30;99.90
51615;DHT22;37695;52.960;6.188;2023-01-24T01:17:12;3.30;99.90
51615;DHT22;37695;52.960;6.188;2023-01-24T01:19:37;3.30;99.90
51615;DHT22;37695;52.960;6.188;2023-01-24T01:22:03;3.30;99.90
51615;DHT22;37695;52.960;6.188;2023-01-24T01:24:28;3.30;99.90
51615;DHT22;37695;52.960;6.188;2023-01-24T01:26:54;3.30;99.90
51615;DHT22;37695;52.960;6.188;2023-01-24T01:29:19;3.30;99.90
51615;DHT22;37695;52.960;6.188;2023-01-24T01:31:45;3.30;99.90
51615;DHT22;37695;52.960;6.188;2023-01-24T01:34:10;3.30;99.90
51615;DHT22;37695;52.960;6.188;2023-01-24T01:36:36;3.20;99.90
51615;DHT22;37695;52.960;6.188;2023-01-24T01:39:02;3.30;99.90
51615;DHT22;37695;52.960;6.188;2023-01-24T01:41:28;3.30;99.90
51615;DHT22;37695;52.960;6.188;2023-01-24T01:43:53;3.30;99.90
51615;DHT22;37695;52.960;6.188;2023-01-24T01:46:47;3.20;99.90
51615;DHT22;37695;52.960;6.188;2023-01-24T01:49:24;3.20;99.90
51615;DHT22;37695;52.960;6.188;2023-01-24T01:51:55;3.20;99.90
51615;DHT22;37695;52.960;6.188;2023-01-24T01:54:32;3.20;99.90
51615;DHT22;37695;52.960;6.188;2023-01-24T01:57:21;3.30;99.90
51615;DHT22;37695;52.960;6.188;2023-01-24T02:00:00;3.30;99.90
51615;DHT22;37695;52.960;6.188;2023-01-24T02:02:28;3.30;99.90
51615;DHT22;37695;52.960;6.188;2023-01-24T02:05:03;3.30;99.90
51615;DHT22;37695;52.960;6.188;2023-01-24T02:07:47;3.30;99.90
51615;DHT22;37695;52.960;6.188;2023-01-24T02:10:19;3.20;99.90
51615;DHT22;37695;52.960;6.188;2023-01-24T02:12:48;3.30;99.90
51615;DHT22;37695;52.960;6.188;2023-01-24T02:15:17;3.30;99.90
51615;DHT22;37695;52.960;6.188;2023-01-24T02:18:02;3.30;99.90
51615;DHT22;37695;52.960;6.188;2023-01-24T02:20:43;3.20;99.90
51615;DHT22;37695;52.960;6.188;2023-01-24T02:23:15;3.30;99.90
51615;DHT22;37695;52.960;6.188;2023-01-24T02:26:03;3.20;99.90
51615;DHT22;37695;52.960;6.188;2023-01-24T02:28:29;3.20;99.90
51615;DHT22;37695;52.960;6.188;2023-01-24T02:30:59;3.20;99.90
51615;DHT22;37695;52.960;6.188;2023-01-24T02:33:25;3.20;99.90
51615;DHT22;37695;52.960;6.188;2023-01-24T02:35:51;3.20;99.90
51615;DHT22;37695;52.960;6.188;2023-01-24T02:38:31;3.20;99.90
51615;DHT22;37695;52.960;6.188;2023-01-24T02:40:58;3.20;99.90
51615;DHT22;37695;52.960;6.188;2023-01-24T02:43:31;3.20;99.90
51615;DHT22;37695;52.960;6.188;2023-01-24T02:45:59;3.20;99.90
51615;DHT22;37695;52.960;6.188;2023-01-24T02:48:24;3.20;99.90
51615;DHT22;37695;52.960;6.188;2023-01-24T02:50:50;3.20;99.90
51615;DHT22;37695;52.960;6.188;2023-01-24T02:53:34;3.20;99.90
51615;DHT22;37695;52.960;6.188;2023-01-24T02:56:04;3.20;99.90
51615;DHT22;37695;52.960;6.188;2023-01-24T02:58:49;3.20;99.90
51615;DHT22;37695;52.960;6.188;2023-01-24T03:01:15;3.20;99.90
51615;DHT22;37695;52.960;6.188;2023-01-24T03:03:45;3.20;99.90
51615;DHT22;37695;52.960;6.188;2023-01-24T03:06:11;3.30;99.90
51615;DHT22;37695;52.960;6.188;2023-01-24T03:08:38;3.20;99.90
51615;DHT22;37695;52.960;6.188;2023-01-24T03:11:05;3.30;99.90
51615;DHT22;37695;52.960;6.188;2023-01-24T03:13:31;3.30;99.90
51615;DHT22;37695;52.960;6.188;2023-01-24T03:16:15;3.30;99.90
51615;DHT22;37695;52.960;6.188;2023-01-24T03:18:59;3.30;99.90
51615;DHT22;37695;52.960;6.188;2023-01-24T03:21:44;3.30;99.90
51615;DHT22;37695;52.960;6.188;2023-01-24T03:24:29;3.20;99.90
51615;DHT22;37695;52.960;6.188;2023-01-24T03:27:13;3.20;99.90
51615;DHT22;37695;52.960;6.188;2023-01-24T03:29:57;3.20;99.90
51615;DHT22;37695;52.960;6.188;2023-01-24T03:32:42;3.20;99.90
51615;DHT22;37695;52.960;6.188;2023-01-24T03:35:27;3.30;99.90
51615;DHT22;37695;52.960;6.188;2023-01-24T03:37:52;3.30;99.90
51615;DHT22;37695;52.960;6.188;2023-01-24T03:40:36;3.30;99.90
51615;DHT22;37695;52.960;6.188;2023-01-24T03:43:03;3.30;99.90
51615;DHT22;37695;52.960;6.188;2023-01-24T03:45:32;3.30;99.90
51615;DHT22;37695;52.960;6.188;2023-01-24T03:48:00;3.30;99.90
51615;DHT22;37695;52.960;6.188;2023-01-24T03:50:29;3.30;99.90
51615;DHT22;37695;52.960;6.188;2023-01-24T03:53:14;3.30;99.90
51615;DHT22;37695;52.960;6.188;2023-01-24T03:55:40;3.30;99.90
51615;DHT22;37695;52.960;6.188;2023-01-24T03:58:07;3.30;99.90
51615;DHT22;37695;52.960;6.188;2023-01-24T04:00:33;3.30;99.90
51615;DHT22;37695;52.960;6.188;2023-01-24T04:02:59;3.30;99.90
51615;DHT22;37695;52.960;6.188;2023-01-24T04:05:25;3.30;99.90
51615;DHT22;37695;52.960;6.188;2023-01-24T04:07:53;3.30;99.90
51615;DHT22;37695;52.960;6.188;2023-01-24T04:10:18;3.30;99.90
51615;DHT22;37695;52.960;6.188;2023-01-24T04:12:44;3.40;99.90
51615;DHT22;37695;52.960;6.188;2023-01-24T04:15:24;3.40;99.90
51615;DHT22;37695;52.960;6.188;2023-01-24T04:17:50;3.40;99.90
51615;DHT22;37695;52.960;6.188;2023-01-24T04:20:16;3.40;99.90
51615;DHT22;37695;52.960;6.188;2023-01-24T04:22:42;3.40;99.90
51615;DHT22;37695;52.960;6.188;2023-01-24T04:25:09;3.40;99.90
51615;DHT22;37695;52.960;6.188;2023-01-24T04:27:35;3.40;99.90
51615;DHT22;37695;52.960;6.188;2023-01-24T04:30:04;3.40;99.90
51615;DHT22;37695;52.960;6.188;2023-01-24T04:32:31;3.40;99.90
51615;DHT22;37695;52.960;6.188;2023-01-24T04:34:56;3.60;99.90
51615;DHT22;37695;52.960;6.188;2023-01-24T04:37:22;3.30;99.90
51615;DHT22;37695;52.960;6.188;2023-01-24T04:39:47;3.30;99.90
51615;DHT22;37695;52.960;6.188;2023-01-24T04:42:13;3.30;99.90
51615;DHT22;37695;52.960;6.188;2023-01-24T04:44:38;3.30;99.90
51615;DHT22;37695;52.960;6.188;2023-01-24T04:47:04;3.30;99.90
51615;DHT22;37695;52.960;6.188;2023-01-24T04:49:30;3.30;99.90
51615;DHT22;37695;52.960;6.188;2023-01-24T04:51:55;3.30;99.90
51615;DHT22;37695;52.960;6.188;2023-01-24T04:54:21;3.30;99.90
51615;DHT22;37695;52.960;6.188;2023-01-24T04:56:46;3.30;99.90
51615;DHT22;37695;52.960;6.188;2023-01-24T04:59:13;3.30;99.90
51615;DHT22;37695;52.960;6.188;2023-01-24T05:01:39;3.30;99.90
51615;DHT22;37695;52.960;6.188;2023-01-24T05:04:05;3.30;99.90
51615;DHT22;37695;52.960;6.188;2023-01-24T05:06:31;3.30;99.90
51615;DHT22;37695;52.960;6.188;2023-01-24T05:08:57;3.30;99.90
51615;DHT22;37695;52.960;6.188;2023-01-24T05:11:24;3.30;99.90
51615;DHT22;37695;52.960;6.188;2023-01-24T05:13:49;3.30;99.90
51615;DHT22;37695;52.960;6.188;2023-01-24T05:16:16;3.30;99.90
51615;DHT22;37695;52.960;6.188;2023-01-24T05:18:41;3.20;99.90
51615;DHT22;37695;52.960;6.188;2023-01-24T05:21:16;3.20;99.90
51615;DHT22;37695;52.960;6.188;2023-01-24T05:23:43;3.20;99.90
51615;DHT22;37695;52.960;6.188;2023-01-24T05:26:12;3.20;99.90
51615;DHT22;37695;52.960;6.188;2023-01-24T05:28:38;3.20;99.90
51615;DHT22;37695;52.960;6.188;2023-01-24T05:31:05;3.20;99.90
51615;DHT22;37695;52.960;6.188;2023-01-24T05:33:32;3.20;99.90
51615;DHT22;37695;52.960;6.188;2023-01-24T05:36:03;3.20;99.90
51615;DHT22;37695;52.960;6.188;2023-01-24T05:38:29;3.20;99.90
51615;DHT22;37695;52.960;6.188;2023-01-24T05:40:59;3.20;99.90
51615;DHT22;37695;52.960;6.188;2023-01-24T05:43:25;3.10;99.90
51615;DHT22;37695;52.960;6.188;2023-01-24T05:45:51;3.10;99.90
51615;DHT22;37695;52.960;6.188;2023-01-24T05:48:16;3.10;99.90
51615;DHT22;37695;52.960;6.188;2023-01-24T05:50:42;3.10;99.90
51615;DHT22;37695;52.960;6.188;2023-01-24T05:53:07;3.10;99.90
51615;DHT22;37695;52.960;6.188;2023-01-24T05:55:33;3.20;99.90
51615;DHT22;37695;52.960;6.188;2023-01-24T05:57:59;3.20;99.90
51615;DHT22;37695;52.960;6.188;2023-01-24T06:00:25;3.20;99.90
51615;DHT22;37695;52.960;6.188;2023-01-24T06:02:51;3.20;99.90
51615;DHT22;37695;52.960;6.188;2023-01-24T06:05:17;3.20;99.90
51615;DHT22;37695;52.960;6.188;2023-01-24T06:07:42;3.20;99.90
51615;DHT22;37695;52.960;6.188;2023-01-24T06:10:08;3.20;99.90
51615;DHT22;37695;52.960;6.188;2023-01-24T06:12:34;3.20;99.90
51615;DHT22;37695;52.960;6.188;2023-01-24T06:14:59;3.20;99.90
51615;DHT22;37695;52.960;6.188;2023-01-24T06:17:25;3.20;99.90
51615;DHT22;37695;52.960;6.188;2023-01-24T06:19:51;3.20;99.90
51615;DHT22;37695;52.960;6.188;2023-01-24T06:22:35;3.10;99.90
51615;DHT22;37695;52.960;6.188;2023-01-24T06:25:02;3.10;99.90
51615;DHT22;37695;52.960;6.188;2023-01-24T06:27:28;3.10;99.90
51615;DHT22;37695;52.960;6.188;2023-01-24T06:29:54;3.10;99.90
51615;DHT22;37695;52.960;6.188;2023-01-24T06:35:24;3.10;99.90
51615;DHT22;37695;52.960;6.188;2023-01-24T06:37:51;3.10;99.90
51615;DHT22;37695;52.960;6.188;2023-01-24T06:40:24;3.10;99.90
51615;DHT22;37695;52.960;6.188;2023-01-24T06:42:51;3.10;99.90
51615;DHT22;37695;52.960;6.188;2023-01-24T06:45:17;3.10;99.90
51615;DHT22;37695;52.960;6.188;2023-01-24T06:47:43;3.10;99.90
51615;DHT22;37695;52.960;6.188;2023-01-24T06:50:20;3.10;99.90
51615;DHT22;37695;52.960;6.188;2023-01-24T06:52:47;3.10;99.90
51615;DHT22;37695;52.960;6.188;2023-01-24T06:55:13;3.10;99.90
51615;DHT22;37695;52.960;6.188;2023-01-24T06:57:39;3.10;99.90
51615;DHT22;37695;52.960;6.188;2023-01-24T07:00:05;3.10;99.90
51615;DHT22;37695;52.960;6.188;2023-01-24T07:02:31;3.10;99.90
51615;DHT22;37695;52.960;6.188;2023-01-24T07:04:57;3.10;99.90
51615;DHT22;37695;52.960;6.188;2023-01-24T07:07:22;3.10;99.90
51615;DHT22;37695;52.960;6.188;2023-01-24T07:09:48;3.10;99.90
51615;DHT22;37695;52.960;6.188;2023-01-24T07:12:13;3.10;99.90
51615;DHT22;37695;52.960;6.188;2023-01-24T07:14:39;3.10;99.90
51615;DHT22;37695;52.960;6.188;2023-01-24T07:17:05;3.00;99.90
51615;DHT22;37695;52.960;6.188;2023-01-24T07:19:31;3.00;99.90
51615;DHT22;37695;52.960;6.188;2023-01-24T07:21:56;3.00;99.90
51615;DHT22;37695;52.960;6.188;2023-01-24T07:24:27;3.00;99.90
51615;DHT22;37695;52.960;6.188;2023-01-24T07:26:54;3.00;99.90
51615;DHT22;37695;52.960;6.188;2023-01-24T07:29:20;3.00;99.90
51615;DHT22;37695;52.960;6.188;2023-01-24T07:31:46;3.00;99.90
51615;DHT22;37695;52.960;6.188;2023-01-24T07:34:14;3.00;99.90
51615;DHT22;37695;52.960;6.188;2023-01-24T07:36:45;3.00;99.90
51615;DHT22;37695;52.960;6.188;2023-01-24T07:39:10;3.00;99.90
51615;DHT22;37695;52.960;6.188;2023-01-24T07:41:37;3.10;99.90
51615;DHT22;37695;52.960;6.188;2023-01-24T07:44:04;3.00;99.90
51615;DHT22;37695;52.960;6.188;2023-01-24T07:46:32;3.00;99.90
51615;DHT22;37695;52.960;6.188;2023-01-24T07:48:58;3.00;99.90
51615;DHT22;37695;52.960;6.188;2023-01-24T07:51:24;3.00;99.90
51615;DHT22;37695;52.960;6.188;2023-01-24T07:53:49;3.00;99.90
51615;DHT22;37695;52.960;6.188;2023-01-24T07:56:15;3.00;99.90
51615;DHT22;37695;52.960;6.188;2023-01-24T07:58:42;3.00;99.90
51615;DHT22;37695;52.960;6.188;2023-01-24T08:01:08;3.00;99.90
51615;DHT22;37695;52.960;6.188;2023-01-24T08:03:33;3.00;99.90
51615;DHT22;37695;52.960;6.188;2023-01-24T08:05:59;3.00;99.90
51615;DHT22;37695;52.960;6.188;2023-01-24T08:08:25;3.00;99.90
51615;DHT22;37695;52.960;6.188;2023-01-24T08:10:50;3.00;99.90
51615;DHT22;37695;52.960;6.188;2023-01-24T08:13:16;3.00;99.90
51615;DHT22;37695;52.960;6.188;2023-01-24T08:15:42;3.00;99.90
51615;DHT22;37695;52.960;6.188;2023-01-24T08:18:07;3.00;99.90
51615;DHT22;37695;52.960;6.188;2023-01-24T08:20:33;3.00;99.90
51615;DHT22;37695;52.960;6.188;2023-01-24T08:22:59;3.00;99.90
51615;DHT22;37695;52.960;6.188;2023-01-24T08:25:25;3.00;99.90
51615;DHT22;37695;52.960;6.188;2023-01-24T08:27:52;3.00;99.90
51615;DHT22;37695;52.960;6.188;2023-01-24T08:30:17;3.00;99.90
51615;DHT22;37695;52.960;6.188;2023-01-24T08:32:43;3.00;99.90
51615;DHT22;37695;52.960;6.188;2023-01-24T08:35:08;3.00;99.90
51615;DHT22;37695;52.960;6.188;2023-01-24T08:37:34;3.10;99.90
51615;DHT22;37695;52.960;6.188;2023-01-24T08:40:00;3.10;99.90
51615;DHT22;37695;52.960;6.188;2023-01-24T08:42:25;3.10;99.90
51615;DHT22;37695;52.960;6.188;2023-01-24T08:44:51;3.10;99.90
51615;DHT22;37695;52.960;6.188;2023-01-24T08:47:17;3.20;99.90
51615;DHT22;37695;52.960;6.188;2023-01-24T08:49:43;3.20;99.90
51615;DHT22;37695;52.960;6.188;2023-01-24T08:52:09;3.20;99.90
51615;DHT22;37695;52.960;6.188;2023-01-24T08:54:35;3.20;99.90
51615;DHT22;37695;52.960;6.188;2023-01-24T08:57:04;3.20;99.90
51615;DHT22;37695;52.960;6.188;2023-01-24T08:59:30;3.20;99.90
51615;DHT22;37695;52.960;6.188;2023-01-24T09:01:55;3.20;99.90
51615;DHT22;37695;52.960;6.188;2023-01-24T09:04:21;3.30;99.90
51615;DHT22;37695;52.960;6.188;2023-01-24T09:06:47;3.30;99.90
51615;DHT22;37695;52.960;6.188;2023-01-24T09:09:12;3.30;99.90
51615;DHT22;37695;52.960;6.188;2023-01-24T09:11:38;3.30;99.90
51615;DHT22;37695;52.960;6.188;2023-01-24T09:14:03;3.30;99.90
51615;DHT22;37695;52.960;6.188;2023-01-24T09:16:29;3.30;99.90
51615;DHT22;37695;52.960;6.188;2023-01-24T09:18:55;3.30;99.90
51615;DHT22;37695;52.960;6.188;2023-01-24T09:21:21;3.30;99.90
51615;DHT22;37695;52.960;6.188;2023-01-24T09:23:46;3.30;99.90
51615;DHT22;37695;52.960;6.188;2023-01-24T09:26:12;3.30;99.90
51615;DHT22;37695;52.960;6.188;2023-01-24T09:28:39;3.40;99.90
51615;DHT22;37695;52.960;6.188;2023-01-24T09:31:07;3.40;99.90
51615;DHT22;37695;52.960;6.188;2023-01-24T09:33:33;3.40;99.90
51615;DHT22;37695;52.960;6.188;2023-01-24T09:36:01;3.40;99.90
51615;DHT22;37695;52.960;6.188;2023-01-24T09:38:29;3.40;99.90
51615;DHT22;37695;52.960;6.188;2023-01-24T09:43:54;3.40;99.90
51615;DHT22;37695;52.960;6.188;2023-01-24T09:48:54;3.40;99.90
51615;DHT22;37695;52.960;6.188;2023-01-24T09:51:25;3.40;99.90
51615;DHT22;37695;52.960;6.188;2023-01-24T09:53:55;3.40;99.90
51615;DHT22;37695;52.960;6.188;2023-01-24T09:56:26;3.40;99.90
51615;DHT22;37695;52.960;6.188;2023-01-24T09:59:20;3.50;99.90
51615;DHT22;37695;52.960;6.188;2023-01-24T10:01:47;3.50;99.90
51615;DHT22;37695;52.960;6.188;2023-01-24T10:04:21;3.50;99.90
51615;DHT22;37695;52.960;6.188;2023-01-24T10:07:29;3.50;99.90
51615;DHT22;37695;52.960;6.188;2023-01-24T10:21:22;3.50;99.90
51615;DHT22;37695;52.960;6.188;2023-01-24T10:24:01;3.50;99.90
51615;DHT22;37695;52.960;6.188;2023-01-24T10:26:34;3.50;99.90
51615;DHT22;37695;52.960;6.188;2023-01-24T10:29:25;3.50;99.90
51615;DHT22;37695;52.960;6.188;2023-01-24T10:32:01;3.60;99.90
51615;DHT22;37695;52.960;6.188;2023-01-24T10:34:31;3.60;99.90
51615;DHT22;37695;52.960;6.188;2023-01-24T10:39:26;3.60;99.90
51615;DHT22;37695;52.960;6.188;2023-01-24T10:41:53;3.70;99.90
51615;DHT22;37695;52.960;6.188;2023-01-24T10:49:58;3.70;99.90
51615;DHT22;37695;52.960;6.188;2023-01-24T10:52:24;3.70;99.90
51615;DHT22;37695;52.960;6.188;2023-01-24T10:54:58;3.60;99.90
51615;DHT22;37695;52.960;6.188;2023-01-24T10:57:42;3.70;99.90
51615;DHT22;37695;52.960;6.188;2023-01-24T11:02:39;3.60;99.90
51615;DHT22;37695;52.960;6.188;2023-01-24T11:05:08;3.60;99.90
51615;DHT22;37695;52.960;6.188;2023-01-24T11:07:36;3.60;99.90
51615;DHT22;37695;52.960;6.188;2023-01-24T11:10:24;3.60;99.90
51615;DHT22;37695;52.960;6.188;2023-01-24T11:12:58;3.70;99.90
51615;DHT22;37695;52.960;6.188;2023-01-24T11:15:32;3.70;99.90
51615;DHT22;37695;52.960;6.188;2023-01-24T11:20:36;3.70;99.90
51615;DHT22;37695;52.960;6.188;2023-01-24T11:23:12;3.70;99.90
51615;DHT22;37695;52.960;6.188;2023-01-24T11:25:52;3.70;99.90
51615;DHT22;37695;52.960;6.188;2023-01-24T11:28:28;3.70;99.90
51615;DHT22;37695;52.960;6.188;2023-01-24T11:31:00;3.70;99.90
51615;DHT22;37695;52.960;6.188;2023-01-24T11:33:57;3.70;99.90
51615;DHT22;37695;52.960;6.188;2023-01-24T11:36:39;3.70;99.90
51615;DHT22;37695;52.960;6.188;2023-01-24T11:39:21;3.70;99.90
51615;DHT22;37695;52.960;6.188;2023-01-24T11:41:58;3.70;99.90
51615;DHT22;37695;52.960;6.188;2023-01-24T11:44:39;3.70;99.90
51615;DHT22;37695;52.960;6.188;2023-01-24T11:47:18;3.70;99.90
51615;DHT22;37695;52.960;6.188;2023-01-24T11:50:26;3.70;99.90
51615;DHT22;37695;52.960;6.188;2023-01-24T11:55:59;3.80;99.90
51615;DHT22;37695;52.960;6.188;2023-01-24T12:01:32;3.80;99.90
51615;DHT22;37695;52.960;6.188;2023-01-24T12:09:16;3.80;99.90
51615;DHT22;37695;52.960;6.188;2023-01-24T12:11:52;3.90;99.90
51615;DHT22;37695;52.960;6.188;2023-01-24T12:16:56;3.90;99.90
51615;DHT22;37695;52.960;6.188;2023-01-24T12:19:47;3.90;99.90
51615;DHT22;37695;52.960;6.188;2023-01-24T12:22:22;3.90;99.90
51615;DHT22;37695;52.960;6.188;2023-01-24T12:24:56;3.90;99.90
51615;DHT22;37695;52.960;6.188;2023-01-24T12:27:25;3.90;99.90
51615;DHT22;37695;52.960;6.188;2023-01-24T12:30:13;3.90;99.90
51615;DHT22;37695;52.960;6.188;2023-01-24T12:32:45;3.90;99.90
51615;DHT22;37695;52.960;6.188;2023-01-24T12:35:41;4.00;99.90
51615;DHT22;37695;52.960;6.188;2023-01-24T12:38:30;4.00;99.90
51615;DHT22;37695;52.960;6.188;2023-01-24T12:44:09;4.00;99.90
51615;DHT22;37695;52.960;6.188;2023-01-24T12:46:54;4.00;99.90
51615;DHT22;37695;52.960;6.188;2023-01-24T12:49:36;4.80;99.90
51615;DHT22;37695;52.960;6.188;2023-01-24T12:55:04;4.00;99.90
51615;DHT22;37695;52.960;6.188;2023-01-24T12:57:44;4.00;99.90
51615;DHT22;37695;52.960;6.188;2023-01-24T13:00:15;4.00;99.90
51615;DHT22;37695;52.960;6.188;2023-01-24T13:10:43;4.00;99.90
51615;DHT22;37695;52.960;6.188;2023-01-24T13:13:23;3.90;99.90
51615;DHT22;37695;52.960;6.188;2023-01-24T13:16:04;3.90;99.90
51615;DHT22;37695;52.960;6.188;2023-01-24T13:21:51;3.90;99.90
51615;DHT22;37695;52.960;6.188;2023-01-24T13:24:17;3.90;99.90
51615;DHT22;37695;52.960;6.188;2023-01-24T13:29:44;3.80;99.90
51615;DHT22;37695;52.960;6.188;2023-01-24T13:32:12;3.80;99.90
51615;DHT22;37695;52.960;6.188;2023-01-24T13:34:48;3.70;99.90
51615;DHT22;37695;52.960;6.188;2023-01-24T13:37:28;3.70;99.90
51615;DHT22;37695;52.960;6.188;2023-01-24T13:42:41;3.70;99.90
51615;DHT22;37695;52.960;6.188;2023-01-24T13:47:55;3.70;99.90
51615;DHT22;37695;52.960;6.188;2023-01-24T13:50:29;3.70;99.90
51615;DHT22;37695;52.960;6.188;2023-01-24T13:53:01;3.70;99.90
51615;DHT22;37695;52.960;6.188;2023-01-24T14:00:29;3.60;99.90
51615;DHT22;37695;52.960;6.188;2023-01-24T14:03:03;3.60;99.90
51615;DHT22;37695;52.960;6.188;2023-01-24T14:08:32;3.50;99.90
51615;DHT22;37695;52.960;6.188;2023-01-24T14:10:51;3.60;99.90
51615;DHT22;37695;52.960;6.188;2023-01-24T14:21:44;3.60;99.90
51615;DHT22;37695;52.960;6.188;2023-01-24T14:27:04;3.70;99.90
51615;DHT22;37695;52.960;6.188;2023-01-24T14:29:37;3.70;99.90
51615;DHT22;37695;52.960;6.188;2023-01-24T14:32:23;3.70;99.90
51615;DHT22;37695;52.960;6.188;2023-01-24T14:34:57;3.60;99.90
51615;DHT22;37695;52.960;6.188;2023-01-24T14:37:26;3.60;99.90
51615;DHT22;37695;52.960;6.188;2023-01-24T14:39:52;3.60;99.90
51615;DHT22;37695;52.960;6.188;2023-01-24T14:42:17;3.60;99.90
51615;DHT22;37695;52.960;6.188;2023-01-24T14:49:49;3.50;99.90
51615;DHT22;37695;52.960;6.188;2023-01-24T14:54:46;3.40;99.90
51615;DHT22;37695;52.960;6.188;2023-01-24T14:57:29;3.40;99.90
51615;DHT22;37695;52.960;6.188;2023-01-24T15:02:50;3.40;99.90
51615;DHT22;37695;52.960;6.188;2023-01-24T15:05:27;3.30;99.90
51615;DHT22;37695;52.960;6.188;2023-01-24T15:07:54;3.30;99.90
51615;DHT22;37695;52.960;6.188;2023-01-24T15:10:24;3.30;99.90
51615;DHT22;37695;52.960;6.188;2023-01-24T15:12:54;3.30;99.90
51615;DHT22;37695;52.960;6.188;2023-01-24T15:15:21;3.20;99.90
51615;DHT22;37695;52.960;6.188;2023-01-24T15:17:48;3.20;99.90
51615;DHT22;37695;52.960;6.188;2023-01-24T15:20:18;3.20;99.90
51615;DHT22;37695;52.960;6.188;2023-01-24T15:22:49;3.20;99.90
51615;DHT22;37695;52.960;6.188;2023-01-24T15:25:21;3.20;99.90
51615;DHT22;37695;52.960;6.188;2023-01-24T15:27:48;3.20;99.90
51615;DHT22;37695;52.960;6.188;2023-01-24T15:30:24;3.20;99.90
51615;DHT22;37695;52.960;6.188;2023-01-24T15:33:00;3.20;99.90
51615;DHT22;37695;52.960;6.188;2023-01-24T15:46:31;3.10;99.90
51615;DHT22;37695;52.960;6.188;2023-01-24T15:51:44;3.00;99.90
51615;DHT22;37695;52.960;6.188;2023-01-24T15:54:23;3.00;99.90
51615;DHT22;37695;52.960;6.188;2023-01-24T15:56:52;3.00;99.90
51615;DHT22;37695;52.960;6.188;2023-01-24T15:59:18;3.00;99.90
51615;DHT22;37695;52.960;6.188;2023-01-24T16:01:44;3.00;99.90
51615;DHT22;37695;52.960;6.188;2023-01-24T16:04:21;2.90;99.90
51615;DHT22;37695;52.960;6.188;2023-01-24T16:06:47;2.90;99.90
51615;DHT22;37695;52.960;6.188;2023-01-24T16:09:13;2.90;99.90
51615;DHT22;37695;52.960;6.188;2023-01-24T16:11:41;2.90;99.90
51615;DHT22;37695;52.960;6.188;2023-01-24T16:14:12;2.90;99.90
51615;DHT22;37695;52.960;6.188;2023-01-24T16:16:38;2.90;99.90
51615;DHT22;37695;52.960;6.188;2023-01-24T16:19:15;2.90;99.90
51615;DHT22;37695;52.960;6.188;2023-01-24T16:21:43;2.90;99.90
51615;DHT22;37695;52.960;6.188;2023-01-24T16:24:09;2.90;99.90
51615;DHT22;37695;52.960;6.188;2023-01-24T16:26:34;2.90;99.90
51615;DHT22;37695;52.960;6.188;2023-01-24T16:29:00;2.90;99.90
51615;DHT22;37695;52.960;6.188;2023-01-24T16:31:26;2.90;99.90
51615;DHT22;37695;52.960;6.188;2023-01-24T16:33:51;2.90;99.90
51615;DHT22;37695;52.960;6.188;2023-01-24T16:36:17;2.90;99.90
51615;DHT22;37695;52.960;6.188;2023-01-24T16:38:43;2.90;99.90
51615;DHT22;37695;52.960;6.188;2023-01-24T16:41:11;2.90;99.90
51615;DHT22;37695;52.960;6.188;2023-01-24T16:43:39;2.80;99.90
51615;DHT22;37695;52.960;6.188;2023-01-24T16:46:19;2.80;99.90
51615;DHT22;37695;52.960;6.188;2023-01-24T16:48:45;2.70;99.90
51615;DHT22;37695;52.960;6.188;2023-01-24T16:51:13;2.70;99.90
51615;DHT22;37695;52.960;6.188;2023-01-24T16:53:39;2.70;99.90
51615;DHT22;37695;52.960;6.188;2023-01-24T16:56:05;2.70;99.90
51615;DHT22;37695;52.960;6.188;2023-01-24T16:58:31;2.60;99.90
51615;DHT22;37695;52.960;6.188;2023-01-24T17:00:57;2.60;99.90
51615;DHT22;37695;52.960;6.188;2023-01-24T17:03:22;2.60;99.90
51615;DHT22;37695;52.960;6.188;2023-01-24T17:05:48;2.60;99.90
51615;DHT22;37695;52.960;6.188;2023-01-24T17:08:14;2.50;99.90
51615;DHT22;37695;52.960;6.188;2023-01-24T17:10:40;2.50;99.90
51615;DHT22;37695;52.960;6.188;2023-01-24T17:13:07;2.50;99.90
51615;DHT22;37695;52.960;6.188;2023-01-24T17:15:37;2.40;99.90
51615;DHT22;37695;52.960;6.188;2023-01-24T17:18:03;2.40;99.90
51615;DHT22;37695;52.960;6.188;2023-01-24T17:20:30;2.50;99.90
51615;DHT22;37695;52.960;6.188;2023-01-24T17:22:56;2.40;99.90
51615;DHT22;37695;52.960;6.188;2023-01-24T17:25:24;2.40;99.90
51615;DHT22;37695;52.960;6.188;2023-01-24T17:27:50;2.40;99.90
51615;DHT22;37695;52.960;6.188;2023-01-24T17:30:16;2.50;99.90
51615;DHT22;37695;52.960;6.188;2023-01-24T17:32:41;2.40;99.90
51615;DHT22;37695;52.960;6.188;2023-01-24T17:35:08;2.40;99.90
51615;DHT22;37695;52.960;6.188;2023-01-24T17:37:34;2.40;99.90
51615;DHT22;37695;52.960;6.188;2023-01-24T17:40:00;2.30;99.90
51615;DHT22;37695;52.960;6.188;2023-01-24T17:42:25;2.60;99.90
51615;DHT22;37695;52.960;6.188;2023-01-24T17:44:51;2.40;99.90
51615;DHT22;37695;52.960;6.188;2023-01-24T17:47:17;2.40;99.90
51615;DHT22;37695;52.960;6.188;2023-01-24T17:49:42;2.60;99.90
51615;DHT22;37695;52.960;6.188;2023-01-24T17:52:08;2.40;99.90
51615;DHT22;37695;52.960;6.188;2023-01-24T17:54:33;2.40;99.90
51615;DHT22;37695;52.960;6.188;2023-01-24T17:56:59;2.40;99.90